createdAt,value
2019-02-23T00:01:41.698Z,34.13
2019-02-23T00:04:10.230Z,35.47
2019-02-23T00:06:38.822Z,33.53
2019-02-23T00:09:07.838Z,34.67
2019-02-23T00:11:36.364Z,34.80
2019-02-23T00:14:04.917Z,32.67
2019-02-23T00:16:33.470Z,35.33
2019-02-23T00:19:02.088Z,38.40
2019-02-23T00:21:30.789Z,38.67
2019-02-23T00:23:59.342Z,39.07
2019-02-23T00:26:27.882Z,37.00
2019-02-23T00:28:57.154Z,36.97
2019-02-23T00:31:26.290Z,34.57
2019-02-23T00:33:54.860Z,38.23
2019-02-23T00:36:23.518Z,39.63
2019-02-23T00:38:52.286Z,41.50
2019-02-23T00:41:20.870Z,42.50
2019-02-23T00:43:49.411Z,42.03
2019-02-23T00:46:18.301Z,47.03
2019-02-23T00:48:47.218Z,46.40
2019-02-23T00:51:16.250Z,45.17
2019-02-23T00:53:44.827Z,43.77
2019-02-23T00:56:13.410Z,44.27
2019-02-23T00:58:42.216Z,41.27
2019-02-23T01:01:10.864Z,41.08
2019-02-23T01:03:39.406Z,39.07
2019-02-23T01:06:07.954Z,36.73
2019-02-23T01:08:36.822Z,30.33
2019-02-23T01:11:05.450Z,22.93
2019-02-23T01:13:34.678Z,22.00
2019-02-23T01:16:03.670Z,25.17
2019-02-23T01:18:32.266Z,25.07
2019-02-23T01:21:00.842Z,25.47
2019-02-23T01:23:29.737Z,25.50
2019-02-23T01:25:58.570Z,27.40
2019-02-23T01:28:27.562Z,26.17
2019-02-23T01:30:56.115Z,26.20
2019-02-23T01:33:25.085Z,26.70
2019-02-23T01:35:53.658Z,25.60
2019-02-23T01:38:22.241Z,23.73
2019-02-23T01:40:50.910Z,23.37
2019-02-23T01:43:19.885Z,23.03
2019-02-23T01:45:48.398Z,22.27
2019-02-23T01:48:17.189Z,24.47
2019-02-23T01:50:46.587Z,23.70
2019-02-23T01:53:15.245Z,21.68
2019-02-23T01:55:44.125Z,22.90
2019-02-23T01:58:12.677Z,24.00
2019-02-23T02:00:41.441Z,22.83
2019-02-23T02:03:10.117Z,23.10
2019-02-23T02:05:39.357Z,21.50
2019-02-23T02:08:07.949Z,22.40
2019-02-23T02:10:36.730Z,23.83
2019-02-23T02:13:05.334Z,24.83
2019-02-23T02:15:33.934Z,24.97
2019-02-23T02:18:02.874Z,27.77
2019-02-23T02:20:31.765Z,29.77
2019-02-23T02:23:00.989Z,33.40
2019-02-23T02:25:29.541Z,38.27
2019-02-23T02:27:58.257Z,43.40
2019-02-23T02:30:26.826Z,44.10
2019-02-23T02:32:55.494Z,51.67
2019-02-23T02:35:24.036Z,50.20
2019-02-23T02:37:52.929Z,48.20
2019-02-23T02:40:21.465Z,46.93
2019-02-23T02:42:50.037Z,51.50
2019-02-23T02:45:18.714Z,45.23
2019-02-23T02:47:47.333Z,36.37
2019-02-23T02:50:24.149Z,29.10
2019-02-23T02:52:44.561Z,26.77
2019-02-23T02:55:13.445Z,26.20
2019-02-23T02:57:42.044Z,20.83
2019-02-23T03:00:11.997Z,22.83
2019-02-23T03:02:40.542Z,21.13
2019-02-23T03:05:09.413Z,21.47
2019-02-23T03:07:38.082Z,19.47
2019-02-23T03:10:06.673Z,20.17
2019-02-23T03:12:35.233Z,20.10
2019-02-23T03:15:03.841Z,22.93
2019-02-23T03:17:32.393Z,20.57
2019-02-23T03:20:00.961Z,20.30
2019-02-23T03:22:29.739Z,22.57
2019-02-23T03:24:58.628Z,21.47
2019-02-23T03:27:27.513Z,21.40
2019-02-23T03:29:56.069Z,19.33
2019-02-23T03:32:24.654Z,19.43
2019-02-23T03:34:53.156Z,19.50
2019-02-23T03:37:21.889Z,19.87
2019-02-23T03:39:50.644Z,18.77
2019-02-23T03:42:19.185Z,18.80
2019-02-23T03:44:47.772Z,20.57
2019-02-23T03:47:16.274Z,19.70
2019-02-23T03:49:44.780Z,20.63
2019-02-23T03:52:13.809Z,20.00
2019-02-23T03:54:42.407Z,20.30
2019-02-23T03:57:10.972Z,20.07
2019-02-23T03:59:39.644Z,19.47
2019-02-23T04:02:08.230Z,19.77
2019-02-23T04:04:36.720Z,20.27
2019-02-23T04:07:05.234Z,21.03
2019-02-23T04:09:33.762Z,21.10
2019-02-23T04:12:02.329Z,20.50
2019-02-23T04:14:30.996Z,20.97
2019-02-23T04:17:00.608Z,20.73
2019-02-23T04:19:29.211Z,21.53
2019-02-23T04:21:58.046Z,20.63
2019-02-23T04:24:26.597Z,21.53
2019-02-23T04:26:55.456Z,20.10
2019-02-23T04:29:23.932Z,21.93
2019-02-23T04:31:52.605Z,21.27
2019-02-23T04:34:21.365Z,21.90
2019-02-23T04:36:50.479Z,20.37
2019-02-23T04:39:19.258Z,20.90
2019-02-23T04:41:48.050Z,23.33
2019-02-23T04:44:16.596Z,22.33
2019-02-23T04:46:45.182Z,20.67
2019-02-23T04:49:13.656Z,19.70
2019-02-23T04:51:42.241Z,21.43
2019-02-23T04:54:10.733Z,21.20
2019-02-23T04:56:39.241Z,22.13
2019-02-23T04:59:08.188Z,21.37
2019-02-23T05:01:36.699Z,20.80
2019-02-23T05:04:05.589Z,21.90
2019-02-23T05:06:34.188Z,21.93
2019-02-23T05:09:02.963Z,21.23
2019-02-23T05:11:31.822Z,22.67
2019-02-23T05:14:00.670Z,21.93
2019-02-23T05:16:29.229Z,21.53
2019-02-23T05:18:57.929Z,23.73
2019-02-23T05:21:27.047Z,22.27
2019-02-23T05:23:55.288Z,22.13
2019-02-23T05:26:23.815Z,22.20
2019-02-23T05:28:52.380Z,23.33
2019-02-23T05:31:22.311Z,25.10
2019-02-23T05:33:50.039Z,25.43
2019-02-23T05:36:18.551Z,25.80
2019-02-23T05:38:47.188Z,24.70
2019-02-23T05:41:15.709Z,25.33
2019-02-23T05:43:44.276Z,25.17
2019-02-23T05:46:13.156Z,26.00
2019-02-23T05:48:41.707Z,25.33
2019-02-23T05:51:12.032Z,25.10
2019-02-23T05:53:40.561Z,24.27
2019-02-23T05:56:12.770Z,23.07
2019-02-23T05:58:37.599Z,23.37
2019-02-23T06:01:06.071Z,21.43
2019-02-23T06:03:34.679Z,22.63
2019-02-23T06:06:03.555Z,21.40
2019-02-23T06:08:32.357Z,19.87
2019-02-23T06:11:00.900Z,22.87
2019-02-23T06:13:29.497Z,24.20
2019-02-23T06:15:58.355Z,23.00
2019-02-23T06:18:27.211Z,23.43
2019-02-23T06:20:56.031Z,26.03
2019-02-23T06:23:24.920Z,27.13
2019-02-23T06:25:53.940Z,25.33
2019-02-23T06:28:22.827Z,22.80
2019-02-23T06:30:51.394Z,22.53
2019-02-23T06:33:20.036Z,22.77
2019-02-23T06:35:48.855Z,23.50
2019-02-23T06:38:17.669Z,21.87
2019-02-23T06:40:46.192Z,25.13
2019-02-23T06:43:14.746Z,24.60
2019-02-23T06:45:43.659Z,25.43
2019-02-23T06:48:12.427Z,27.15
2019-02-23T06:50:40.943Z,25.50
2019-02-23T06:53:09.871Z,26.23
2019-02-23T06:55:38.418Z,27.03
2019-02-23T06:58:06.974Z,24.07
2019-02-23T07:00:35.499Z,24.70
2019-02-23T07:03:04.426Z,22.83
2019-02-23T07:05:33.356Z,21.17
2019-02-23T07:08:02.198Z,21.43
2019-02-23T07:10:30.818Z,21.97
2019-02-23T07:12:59.295Z,19.83
2019-02-23T07:15:27.815Z,20.40
2019-02-23T07:17:56.347Z,19.70
2019-02-23T07:20:24.871Z,16.97
2019-02-23T07:22:53.780Z,17.90
2019-02-23T07:25:22.775Z,18.13
2019-02-23T07:27:51.379Z,18.27
2019-02-23T07:30:19.952Z,14.47
2019-02-23T07:32:48.430Z,16.57
2019-02-23T07:35:17.298Z,18.13
2019-02-23T07:37:45.850Z,18.73
2019-02-23T07:40:14.407Z,19.47
2019-02-23T07:42:43.011Z,19.50
2019-02-23T07:45:11.695Z,21.03
2019-02-23T07:47:40.186Z,19.53
2019-02-23T07:50:08.838Z,17.67
2019-02-23T07:52:37.656Z,19.83
2019-02-23T07:55:06.274Z,17.07
2019-02-23T07:57:34.850Z,17.13
2019-02-23T08:00:03.460Z,15.27
2019-02-23T08:02:31.969Z,17.87
2019-02-23T08:05:00.846Z,16.73
2019-02-23T08:07:29.686Z,16.47
2019-02-23T08:09:58.354Z,16.83
2019-02-23T08:12:27.166Z,14.17
2019-02-23T08:14:56.091Z,14.77
2019-02-23T08:17:24.715Z,15.17
2019-02-23T08:19:53.306Z,16.30
2019-02-23T08:22:22.197Z,12.87
2019-02-23T08:24:50.667Z,13.87
2019-02-23T08:27:19.466Z,13.77
2019-02-23T08:29:48.222Z,15.73
2019-02-23T08:32:16.834Z,15.18
2019-02-23T08:34:46.013Z,12.00
2019-02-23T08:37:14.474Z,13.47
2019-02-23T08:39:43.278Z,12.67
2019-02-23T08:42:11.751Z,12.47
2019-02-23T08:44:40.246Z,13.50
2019-02-23T08:47:08.778Z,14.33
2019-02-23T08:49:37.526Z,11.40
2019-02-23T08:52:06.467Z,13.47
2019-02-23T08:54:34.959Z,12.80
2019-02-23T08:57:03.487Z,10.57
2019-02-23T08:59:31.986Z,10.90
2019-02-23T09:02:00.466Z,10.47
2019-02-23T09:04:29.254Z,9.97
2019-02-23T09:06:57.774Z,9.93
2019-02-23T09:09:26.222Z,12.63
2019-02-23T09:11:55.194Z,10.47
2019-02-23T09:14:23.986Z,9.80
2019-02-23T09:16:52.467Z,10.90
2019-02-23T09:19:21.850Z,10.97
2019-02-23T09:21:50.591Z,10.93
2019-02-23T09:24:19.086Z,7.30
2019-02-23T09:26:47.753Z,7.37
2019-02-23T09:29:16.292Z,7.83
2019-02-23T09:31:44.902Z,4.83
2019-02-23T09:34:13.433Z,7.50
2019-02-23T09:36:42.628Z,7.37
2019-02-23T09:39:11.164Z,9.15
2019-02-23T09:41:40.074Z,7.27
2019-02-23T09:44:08.678Z,7.20
2019-02-23T09:46:37.186Z,8.67
2019-02-23T09:49:05.721Z,5.80
2019-02-23T09:51:34.622Z,8.53
2019-02-23T09:54:03.156Z,7.80
2019-02-23T09:56:31.685Z,7.60
2019-02-23T09:59:00.194Z,6.03
2019-02-23T10:01:28.846Z,6.03
2019-02-23T10:03:57.366Z,11.27
2019-02-23T10:06:26.362Z,8.40
2019-02-23T10:08:54.969Z,7.97
2019-02-23T10:11:23.969Z,6.77
2019-02-23T10:13:52.881Z,6.97
2019-02-23T10:16:21.772Z,8.47
2019-02-23T10:18:50.273Z,5.10
2019-02-23T10:21:19.605Z,5.33
2019-02-23T10:23:48.741Z,7.13
2019-02-23T10:26:17.345Z,7.40
2019-02-23T10:28:45.928Z,6.13
2019-02-23T10:31:14.711Z,5.85
2019-02-23T10:33:47.662Z,5.23
2019-02-23T10:36:11.948Z,5.43
2019-02-23T10:38:40.952Z,5.67
2019-02-23T10:41:09.728Z,5.07
2019-02-23T10:43:38.348Z,6.63
2019-02-23T10:46:07.189Z,7.80
2019-02-23T10:48:35.712Z,9.90
2019-02-23T10:51:04.611Z,9.23
2019-02-23T10:53:33.629Z,7.90
2019-02-23T10:56:02.133Z,8.50
2019-02-23T10:58:30.958Z,10.30
2019-02-23T11:00:59.538Z,6.50
2019-02-23T11:03:28.114Z,8.43
2019-02-23T11:05:56.622Z,6.97
2019-02-23T11:08:25.118Z,5.73
2019-02-23T11:10:53.730Z,6.60
2019-02-23T11:13:22.565Z,7.07
2019-02-23T11:15:51.346Z,5.33
2019-02-23T11:18:20.190Z,7.57
2019-02-23T11:20:48.989Z,9.23
2019-02-23T11:23:17.929Z,6.40
2019-02-23T11:25:46.586Z,5.00
2019-02-23T11:28:15.393Z,6.40
2019-02-23T11:30:44.108Z,7.70
2019-02-23T11:33:12.769Z,8.90
2019-02-23T11:35:41.694Z,8.13
2019-02-23T11:38:10.367Z,8.77
2019-02-23T11:40:39.005Z,6.90
2019-02-23T11:43:07.569Z,7.57
2019-02-23T11:45:36.905Z,6.77
2019-02-23T11:48:05.477Z,4.77
2019-02-23T11:50:34.478Z,2.80
2019-02-23T11:53:03.165Z,5.07
2019-02-23T11:55:32.109Z,5.57
2019-02-23T11:58:00.669Z,2.37
2019-02-23T12:00:29.509Z,7.00
2019-02-23T12:02:57.997Z,5.43
2019-02-23T12:05:26.733Z,5.47
2019-02-23T12:07:55.885Z,4.33
2019-02-23T12:10:24.408Z,10.00
2019-02-23T12:12:53.081Z,6.43
2019-02-23T12:15:21.845Z,6.90
2019-02-23T12:17:50.297Z,5.53
2019-02-23T12:20:18.853Z,4.23
2019-02-23T12:22:47.601Z,6.40
2019-02-23T12:25:16.438Z,7.30
2019-02-23T12:27:44.593Z,6.30
2019-02-23T12:30:13.133Z,7.37
2019-02-23T12:32:42.227Z,5.40
2019-02-23T12:35:10.954Z,6.13
2019-02-23T12:37:39.549Z,6.90
2019-02-23T12:40:08.072Z,5.80
2019-02-23T12:42:36.604Z,6.17
2019-02-23T12:45:05.749Z,5.70
2019-02-23T12:47:34.188Z,6.07
2019-02-23T12:50:02.653Z,5.77
2019-02-23T12:52:34.245Z,6.30
2019-02-23T12:55:02.796Z,7.27
2019-02-23T12:57:31.244Z,10.70
2019-02-23T13:00:00.097Z,10.87
2019-02-23T13:02:28.937Z,7.67
2019-02-23T13:04:57.725Z,6.40
2019-02-23T13:07:27.152Z,7.93
2019-02-23T13:09:56.129Z,9.83
2019-02-23T13:12:29.749Z,6.07
2019-02-23T13:15:03.813Z,7.10
2019-02-23T13:17:52.209Z,8.37
2019-02-23T13:20:33.492Z,9.67
2019-02-23T13:23:18.936Z,9.17
2019-02-23T13:25:55.684Z,7.43
2019-02-23T13:28:35.012Z,6.40
2019-02-23T13:31:16.473Z,8.80
2019-02-23T13:35:58.500Z,6.13
2019-02-23T13:38:45.868Z,7.83
2019-02-23T13:41:56.068Z,8.87
2019-02-23T13:44:41.828Z,7.20
2019-02-23T13:47:23.404Z,5.93
2019-02-23T13:50:10.876Z,4.60
2019-02-23T13:53:52.677Z,6.90
2019-02-23T13:56:34.748Z,6.70
2019-02-23T13:59:16.206Z,3.87
2019-02-23T14:03:58.212Z,4.00
2019-02-23T14:06:39.520Z,5.50
2019-02-23T14:10:51.296Z,5.43
2019-02-23T14:13:46.310Z,5.00
2019-02-23T14:16:29.332Z,6.83
2019-02-23T14:19:07.264Z,8.23
2019-02-23T14:21:48.604Z,7.40
2019-02-23T14:24:50.153Z,7.70
2019-02-23T14:27:26.096Z,6.67
2019-02-23T14:30:05.687Z,7.50
2019-02-23T14:33:01.228Z,6.70
2019-02-23T14:35:38.575Z,8.23
2019-02-23T14:38:19.652Z,10.47
2019-02-23T14:41:09.777Z,6.30
2019-02-23T14:43:56.058Z,5.53
2019-02-23T14:49:10.858Z,10.30
2019-02-23T14:51:53.488Z,6.93
2019-02-23T14:54:30.868Z,11.50
2019-02-23T14:57:12.157Z,10.20
2019-02-23T14:59:59.599Z,8.53
2019-02-23T15:04:44.460Z,10.30
2019-02-23T15:07:24.628Z,8.03
2019-02-23T15:10:08.523Z,7.63
2019-02-23T15:12:55.657Z,6.27
2019-02-23T15:15:36.332Z,6.77
2019-02-23T15:20:20.471Z,7.30
2019-02-23T15:23:04.912Z,7.13
2019-02-23T15:25:45.054Z,5.87
2019-02-23T15:29:42.317Z,7.20
2019-02-23T15:34:23.331Z,5.63
2019-02-23T15:39:35.680Z,6.40
2019-02-23T15:42:16.452Z,8.10
2019-02-23T15:47:00.762Z,5.87
2019-02-23T15:49:31.530Z,10.93
2019-02-23T15:52:01.529Z,8.33
2019-02-23T15:54:30.079Z,6.60
2019-02-23T15:56:58.995Z,7.63
2019-02-23T15:59:27.523Z,8.97
2019-02-23T16:01:56.707Z,9.63
2019-02-23T16:04:25.492Z,9.97
2019-02-23T16:06:54.043Z,9.40
2019-02-23T16:09:22.651Z,9.90
2019-02-23T16:11:51.196Z,10.27
2019-02-23T16:14:20.039Z,11.03
2019-02-23T16:16:48.827Z,10.93
2019-02-23T16:19:17.372Z,10.72
2019-02-23T16:21:45.950Z,11.40
2019-02-23T16:24:14.807Z,8.90
2019-02-23T16:26:43.727Z,11.17
2019-02-23T16:29:12.759Z,10.43
2019-02-23T16:31:41.281Z,10.97
2019-02-23T16:34:09.887Z,12.43
2019-02-23T16:36:38.520Z,11.33
2019-02-23T16:39:10.640Z,11.03
2019-02-23T16:41:39.371Z,11.50
2019-02-23T16:44:08.563Z,13.70
2019-02-23T16:46:39.070Z,13.13
2019-02-23T16:49:07.634Z,11.30
2019-02-23T16:51:36.191Z,11.83
2019-02-23T16:54:05.255Z,9.27
2019-02-23T16:56:33.803Z,9.20
2019-02-23T16:59:02.419Z,10.03
2019-02-23T17:01:30.967Z,9.30
2019-02-23T17:03:59.435Z,8.97
2019-02-23T17:06:28.031Z,9.23
2019-02-23T17:08:56.755Z,9.83
2019-02-23T17:11:25.338Z,8.87
2019-02-23T17:13:54.205Z,8.43
2019-02-23T17:16:22.759Z,10.13
2019-02-23T17:18:51.407Z,9.50
2019-02-23T17:21:19.904Z,9.07
2019-02-23T17:23:48.463Z,9.17
2019-02-23T17:26:17.135Z,9.70
2019-02-23T17:28:45.614Z,12.60
2019-02-23T17:31:14.190Z,12.43
2019-02-23T17:33:42.723Z,14.07
2019-02-23T17:36:11.247Z,13.70
2019-02-23T17:38:39.730Z,15.60
2019-02-23T17:41:08.622Z,16.67
2019-02-23T17:43:40.092Z,12.40
2019-02-23T17:46:05.866Z,14.20
2019-02-23T17:48:34.690Z,11.23
2019-02-23T17:51:03.236Z,9.67
2019-02-23T17:53:31.770Z,12.63
2019-02-23T17:56:00.242Z,11.27
2019-02-23T17:58:28.714Z,11.70
2019-02-23T18:00:57.214Z,9.83
2019-02-23T18:03:25.833Z,11.30
2019-02-23T18:05:54.806Z,10.33
2019-02-23T18:08:23.342Z,10.03
2019-02-23T18:10:51.843Z,9.03
2019-02-23T18:13:20.790Z,9.25
2019-02-23T18:15:49.269Z,10.53
2019-02-23T18:18:17.774Z,10.07
2019-02-23T18:20:48.277Z,13.03
2019-02-23T18:23:16.752Z,10.63
2019-02-23T18:25:45.726Z,11.73
2019-02-23T18:28:14.230Z,12.43
2019-02-23T18:30:42.770Z,12.57
2019-02-23T18:33:11.358Z,13.87
2019-02-23T18:35:40.430Z,14.30
2019-02-23T18:38:08.926Z,14.17
2019-02-23T18:40:37.866Z,15.97
2019-02-23T18:43:06.371Z,13.50
2019-02-23T18:45:35.190Z,14.63
2019-02-23T18:48:04.758Z,12.40
2019-02-23T18:50:33.297Z,12.83
2019-02-23T18:53:01.806Z,11.40
2019-02-23T18:55:30.569Z,10.47
2019-02-23T18:57:59.385Z,11.10
2019-02-23T19:00:28.009Z,10.50
2019-02-23T19:02:56.537Z,10.23
2019-02-23T19:05:25.093Z,9.47
2019-02-23T19:07:53.589Z,8.73
2019-02-23T19:10:22.062Z,9.63
2019-02-23T19:12:50.673Z,9.57
2019-02-23T19:15:19.253Z,10.47
2019-02-23T19:17:47.857Z,9.70
2019-02-23T19:20:16.342Z,11.45
2019-02-23T19:22:44.973Z,11.20
2019-02-23T19:25:13.551Z,10.80
2019-02-23T19:27:42.057Z,10.37
2019-02-23T19:30:11.805Z,10.05
2019-02-23T19:32:40.273Z,10.57
2019-02-23T19:35:08.858Z,10.47
2019-02-23T19:37:37.402Z,8.30
2019-02-23T19:40:05.973Z,8.43
2019-02-23T19:42:34.477Z,10.13
2019-02-23T19:45:03.027Z,9.30
2019-02-23T19:47:33.797Z,10.13
2019-02-23T19:50:09.749Z,10.97
2019-02-23T19:52:38.426Z,11.13
2019-02-23T19:55:08.797Z,8.93
2019-02-23T19:57:37.309Z,11.20
2019-02-23T20:00:06.013Z,10.73
2019-02-23T20:02:34.905Z,12.63
2019-02-23T20:05:03.637Z,13.43
2019-02-23T20:07:32.170Z,11.63
2019-02-23T20:10:00.786Z,13.47
2019-02-23T20:12:29.253Z,12.90
2019-02-23T20:14:58.013Z,12.43
2019-02-23T20:17:26.917Z,14.53
2019-02-23T20:19:55.721Z,13.13
2019-02-23T20:22:24.881Z,13.13
2019-02-23T20:24:53.777Z,11.87
2019-02-23T20:27:22.641Z,11.03
2019-02-23T20:29:51.361Z,10.37
2019-02-23T20:32:19.921Z,9.67
2019-02-23T20:34:48.777Z,8.83
2019-02-23T20:37:17.313Z,9.27
2019-02-23T20:39:46.345Z,9.57
2019-02-23T20:42:15.453Z,10.37
2019-02-23T20:44:44.293Z,9.03
2019-02-23T20:47:13.065Z,10.37
2019-02-23T20:49:41.681Z,12.37
2019-02-23T20:52:10.453Z,9.67
2019-02-23T20:54:39.272Z,9.43
2019-02-23T20:57:13.737Z,10.07
2019-02-23T20:59:36.861Z,9.17
2019-02-23T21:02:05.512Z,10.40
2019-02-23T21:04:34.049Z,9.73
2019-02-23T21:07:02.933Z,10.47
2019-02-23T21:09:31.885Z,9.73
2019-02-23T21:12:00.832Z,9.60
2019-02-23T21:14:29.732Z,10.57
2019-02-23T21:16:58.228Z,10.23
2019-02-23T21:19:27.178Z,10.77
2019-02-23T21:21:55.972Z,10.50
2019-02-23T21:24:24.569Z,9.47
2019-02-23T21:26:53.128Z,9.53
2019-02-23T21:29:22.056Z,10.60
2019-02-23T21:31:50.693Z,10.80
2019-02-23T21:34:20.361Z,10.63
2019-02-23T21:36:49.516Z,10.57
2019-02-23T21:39:18.033Z,10.80
2019-02-23T21:41:46.560Z,9.77
2019-02-23T21:44:15.400Z,10.33
2019-02-23T21:46:44.273Z,9.80
2019-02-23T21:49:13.132Z,10.67
2019-02-23T21:51:41.880Z,11.30
2019-02-23T21:54:11.054Z,10.60
2019-02-23T21:56:39.625Z,10.37
2019-02-23T21:59:08.420Z,10.70
2019-02-23T22:01:36.956Z,12.90
2019-02-23T22:04:06.329Z,11.13
2019-02-23T22:06:34.930Z,10.17
2019-02-23T22:09:03.504Z,11.33
2019-02-23T22:11:32.276Z,11.37
2019-02-23T22:14:01.704Z,10.90
2019-02-23T22:16:30.176Z,11.20
2019-02-23T22:18:58.736Z,12.20
2019-02-23T22:21:27.299Z,11.07
2019-02-23T22:23:55.901Z,12.10
2019-02-23T22:26:25.136Z,11.77
2019-02-23T22:28:53.844Z,12.10
2019-02-23T22:31:22.676Z,12.25
2019-02-23T22:33:51.608Z,11.13
2019-02-23T22:36:20.157Z,12.07
2019-02-23T22:38:48.985Z,11.23
2019-02-23T22:41:17.516Z,12.10
2019-02-23T22:43:46.603Z,11.37
2019-02-23T22:46:15.423Z,11.27
2019-02-23T22:48:44.671Z,11.00
2019-02-23T22:51:13.228Z,12.27
2019-02-23T22:53:41.716Z,12.43
2019-02-23T22:56:10.232Z,11.33
2019-02-23T22:58:39.000Z,12.17
2019-02-23T23:01:07.839Z,11.73
2019-02-23T23:03:36.916Z,11.77
2019-02-23T23:06:05.912Z,13.97
2019-02-23T23:08:34.387Z,12.43
2019-02-23T23:11:02.988Z,13.40
2019-02-23T23:13:31.821Z,11.63
2019-02-23T23:16:00.282Z,14.27
2019-02-23T23:18:28.800Z,13.33
2019-02-23T23:20:57.431Z,13.73
2019-02-23T23:23:26.479Z,13.63
2019-02-23T23:25:55.051Z,13.17
2019-02-23T23:28:23.567Z,13.47
2019-02-23T23:30:52.507Z,12.90
2019-02-23T23:33:21.436Z,13.63
2019-02-23T23:35:50.053Z,12.43
2019-02-23T23:38:18.883Z,12.75
2019-02-23T23:40:47.965Z,10.93
2019-02-23T23:43:16.827Z,10.73
2019-02-23T23:45:45.375Z,11.03
2019-02-23T23:48:14.295Z,11.90
2019-02-23T23:50:42.814Z,11.87
2019-02-23T23:53:11.499Z,11.97
2019-02-23T23:55:40.283Z,12.37
2019-02-23T23:58:08.768Z,11.63
